createdAt,value
2019-03-31T00:01:07.295Z,8.00
2019-03-31T00:01:54.434Z,8.00
2019-03-31T00:02:54.450Z,8.00
2019-03-31T00:03:54.421Z,8.00
2019-03-31T00:04:54.436Z,8.00
2019-03-31T00:05:54.403Z,8.00
2019-03-31T00:06:54.424Z,8.00
2019-03-31T00:07:54.388Z,8.00
2019-03-31T00:08:54.385Z,8.00
2019-03-31T00:09:54.374Z,8.00
2019-03-31T00:10:54.364Z,8.00
2019-03-31T00:11:54.357Z,8.00
2019-03-31T00:12:54.353Z,8.00
2019-03-31T00:13:54.343Z,8.00
2019-03-31T00:14:54.354Z,8.00
2019-03-31T00:15:54.337Z,8.00
2019-03-31T00:16:54.322Z,8.00
2019-03-31T00:17:54.315Z,8.00
2019-03-31T00:18:54.307Z,8.00
2019-03-31T00:19:54.305Z,8.00
2019-03-31T00:20:54.293Z,8.00
2019-03-31T00:21:54.294Z,8.00
2019-03-31T00:22:54.285Z,8.00
2019-03-31T00:23:54.297Z,8.00
2019-03-31T00:24:54.264Z,8.00
2019-03-31T00:25:54.256Z,8.00
2019-03-31T00:26:54.246Z,8.00
2019-03-31T00:27:54.277Z,8.00
2019-03-31T00:28:54.239Z,8.00
2019-03-31T00:29:54.224Z,8.00
2019-03-31T00:30:54.218Z,8.00
2019-03-31T00:31:54.211Z,8.00
2019-03-31T00:32:54.213Z,8.00
2019-03-31T00:33:54.200Z,8.00
2019-03-31T00:34:54.183Z,8.00
2019-03-31T00:35:54.178Z,8.00
2019-03-31T00:36:54.178Z,8.00
2019-03-31T00:37:54.175Z,8.00
2019-03-31T00:38:54.157Z,8.00
2019-03-31T00:39:54.150Z,8.00
2019-03-31T00:40:54.151Z,8.00
2019-03-31T00:41:54.131Z,8.00
2019-03-31T00:42:54.128Z,8.00
2019-03-31T00:43:54.116Z,8.00
2019-03-31T00:44:54.110Z,8.00
2019-03-31T00:45:54.102Z,8.00
2019-03-31T00:46:54.099Z,8.00
2019-03-31T00:47:54.088Z,8.00
2019-03-31T00:48:54.077Z,8.00
2019-03-31T00:49:54.110Z,8.00
2019-03-31T00:50:54.077Z,8.00
2019-03-31T00:51:54.068Z,8.00
2019-03-31T00:52:54.055Z,8.00
2019-03-31T00:53:54.040Z,8.00
2019-03-31T00:54:54.037Z,8.00
2019-03-31T00:55:54.027Z,4.00
2019-03-31T00:56:54.016Z,8.00
2019-03-31T00:57:54.010Z,8.00
2019-03-31T00:58:54.001Z,8.00
2019-03-31T00:59:53.990Z,8.00
2019-03-31T01:00:54.001Z,8.00
2019-03-31T01:01:53.977Z,8.00
2019-03-31T01:02:53.972Z,8.00
2019-03-31T01:03:53.963Z,8.00
2019-03-31T01:04:53.976Z,8.00
2019-03-31T01:05:53.951Z,8.00
2019-03-31T01:06:53.940Z,8.00
2019-03-31T01:07:53.936Z,8.00
2019-03-31T01:08:53.927Z,8.00
2019-03-31T01:09:53.913Z,8.00
2019-03-31T01:10:53.908Z,8.00
2019-03-31T01:11:53.898Z,8.00
2019-03-31T01:12:53.898Z,8.00
2019-03-31T01:13:53.885Z,8.00
2019-03-31T01:14:53.877Z,8.00
2019-03-31T01:15:53.873Z,8.00
2019-03-31T01:16:53.856Z,8.00
2019-03-31T01:17:53.854Z,8.00
2019-03-31T01:18:53.844Z,8.00
2019-03-31T01:19:53.836Z,8.00
2019-03-31T01:20:53.828Z,8.00
2019-03-31T01:21:53.818Z,8.00
2019-03-31T01:22:53.808Z,8.00
2019-03-31T01:23:53.801Z,8.00
2019-03-31T01:24:53.795Z,8.00
2019-03-31T01:25:53.790Z,8.00
2019-03-31T01:26:53.781Z,8.00
2019-03-31T01:27:53.773Z,8.00
2019-03-31T01:28:53.769Z,8.00
2019-03-31T01:29:53.761Z,8.00
2019-03-31T01:30:53.747Z,8.00
2019-03-31T01:31:53.743Z,8.00
2019-03-31T01:32:53.736Z,8.00
2019-03-31T01:33:53.724Z,8.00
2019-03-31T01:34:53.719Z,8.00
2019-03-31T01:35:53.708Z,8.00
2019-03-31T01:36:53.706Z,8.00
2019-03-31T01:37:53.691Z,8.00
2019-03-31T01:38:53.692Z,8.00
2019-03-31T01:39:53.680Z,8.00
2019-03-31T01:40:53.672Z,8.00
2019-03-31T01:41:53.664Z,8.00
2019-03-31T01:42:53.653Z,8.00
2019-03-31T01:43:53.643Z,8.00
2019-03-31T01:44:53.638Z,8.00
2019-03-31T01:45:53.627Z,8.00
2019-03-31T01:46:53.633Z,8.00
2019-03-31T01:47:53.610Z,8.00
2019-03-31T01:48:53.605Z,8.00
2019-03-31T01:49:53.595Z,8.00
2019-03-31T01:50:53.588Z,8.00
2019-03-31T01:51:53.578Z,8.00
2019-03-31T01:52:53.643Z,8.00
2019-03-31T01:53:53.561Z,8.00
2019-03-31T01:54:53.556Z,8.00
2019-03-31T01:55:53.544Z,8.00
2019-03-31T01:56:53.544Z,8.00
2019-03-31T01:57:53.534Z,8.00
2019-03-31T01:58:53.520Z,8.00
2019-03-31T01:59:53.514Z,8.00
2019-03-31T02:00:53.506Z,8.00
2019-03-31T02:02:03.561Z,8.00
2019-03-31T02:02:53.506Z,8.00
2019-03-31T02:03:53.483Z,8.00
2019-03-31T02:04:53.473Z,8.00
2019-03-31T02:05:53.465Z,8.00
2019-03-31T02:06:53.487Z,8.00
2019-03-31T02:07:53.463Z,8.00
2019-03-31T02:08:53.445Z,8.00
2019-03-31T02:09:53.430Z,8.00
2019-03-31T02:10:53.426Z,8.00
2019-03-31T02:11:53.415Z,8.00
2019-03-31T02:12:53.405Z,8.00
2019-03-31T02:13:53.405Z,8.00
2019-03-31T02:14:53.387Z,8.00
2019-03-31T02:15:53.382Z,8.00
2019-03-31T02:16:53.374Z,8.00
2019-03-31T02:17:53.364Z,8.00
2019-03-31T02:18:53.355Z,8.00
2019-03-31T02:19:53.350Z,8.00
2019-03-31T02:20:53.349Z,8.00
2019-03-31T02:21:53.331Z,8.00
2019-03-31T02:22:53.321Z,8.00
2019-03-31T02:23:53.317Z,8.00
2019-03-31T02:24:53.311Z,8.00
2019-03-31T02:25:53.299Z,8.00
2019-03-31T02:26:53.288Z,8.00
2019-03-31T02:27:53.283Z,8.00
2019-03-31T02:28:53.275Z,8.00
2019-03-31T02:29:53.271Z,8.00
2019-03-31T02:30:53.255Z,8.00
2019-03-31T02:31:53.257Z,8.00
2019-03-31T02:32:53.239Z,8.00
2019-03-31T02:33:53.233Z,8.00
2019-03-31T02:34:53.223Z,8.00
2019-03-31T02:35:53.219Z,8.00
2019-03-31T02:36:53.215Z,8.00
2019-03-31T02:37:53.198Z,8.00
2019-03-31T02:38:53.191Z,8.00
2019-03-31T02:39:53.177Z,8.00
2019-03-31T02:40:53.174Z,8.00
2019-03-31T02:41:53.165Z,8.00
2019-03-31T02:42:53.157Z,8.00
2019-03-31T02:43:53.145Z,8.00
2019-03-31T02:44:53.142Z,8.00
2019-03-31T02:45:53.148Z,8.00
2019-03-31T02:46:53.118Z,8.00
2019-03-31T02:47:53.113Z,8.00
2019-03-31T02:48:53.103Z,8.00
2019-03-31T02:49:53.096Z,8.00
2019-03-31T02:50:53.088Z,8.00
2019-03-31T02:51:53.072Z,8.00
2019-03-31T02:52:53.071Z,8.00
2019-03-31T02:53:53.057Z,8.00
2019-03-31T02:54:53.054Z,8.00
2019-03-31T02:55:53.045Z,8.00
2019-03-31T02:56:53.036Z,8.00
2019-03-31T02:57:53.025Z,8.00
2019-03-31T02:58:53.025Z,8.00
2019-03-31T02:59:53.016Z,8.00
2019-03-31T03:00:53.001Z,8.00
2019-03-31T03:01:52.992Z,8.00
2019-03-31T03:02:52.985Z,8.00
2019-03-31T03:03:52.974Z,8.00
2019-03-31T03:04:52.965Z,8.00
2019-03-31T03:05:52.956Z,8.00
2019-03-31T03:06:52.955Z,8.00
2019-03-31T03:07:52.936Z,8.00
2019-03-31T03:08:52.938Z,8.00
2019-03-31T03:09:52.924Z,8.00
2019-03-31T03:10:52.910Z,8.00
2019-03-31T03:11:52.900Z,8.00
2019-03-31T03:12:52.910Z,8.00
2019-03-31T03:13:52.892Z,8.00
2019-03-31T03:14:52.877Z,8.00
2019-03-31T03:15:52.871Z,8.00
2019-03-31T03:16:52.858Z,8.00
2019-03-31T03:17:52.854Z,8.00
2019-03-31T03:18:52.844Z,8.00
2019-03-31T03:19:52.835Z,8.00
2019-03-31T03:20:52.834Z,8.00
2019-03-31T03:21:52.814Z,8.00
2019-03-31T03:22:52.814Z,8.00
2019-03-31T03:23:52.800Z,8.00
2019-03-31T03:24:52.800Z,8.00
2019-03-31T03:25:56.135Z,8.00
2019-03-31T03:26:52.775Z,8.00
2019-03-31T03:27:52.777Z,8.00
2019-03-31T03:28:52.754Z,8.00
2019-03-31T03:29:52.763Z,8.00
2019-03-31T03:30:52.838Z,8.00
2019-03-31T03:31:52.733Z,8.00
2019-03-31T03:33:13.602Z,8.00
2019-03-31T03:33:52.721Z,8.00
2019-03-31T03:34:52.705Z,8.00
2019-03-31T03:35:52.694Z,8.00
2019-03-31T03:36:52.688Z,8.00
2019-03-31T03:37:52.674Z,8.00
2019-03-31T03:38:52.667Z,8.00
2019-03-31T03:39:52.674Z,8.00
2019-03-31T03:40:52.650Z,8.00
2019-03-31T03:41:52.640Z,8.00
2019-03-31T03:42:52.634Z,8.00
2019-03-31T03:43:56.377Z,8.00
2019-03-31T03:44:52.619Z,8.00
2019-03-31T03:45:52.603Z,8.00
2019-03-31T03:46:52.604Z,8.00
2019-03-31T03:47:52.595Z,8.00
2019-03-31T03:48:52.601Z,8.00
2019-03-31T03:49:52.568Z,8.00
2019-03-31T03:50:52.570Z,8.00
2019-03-31T03:51:52.556Z,8.00
2019-03-31T03:52:52.543Z,8.00
2019-03-31T03:53:52.533Z,8.00
2019-03-31T03:54:52.675Z,8.00
2019-03-31T03:55:52.514Z,8.00
2019-03-31T03:56:52.505Z,8.00
2019-03-31T03:57:52.503Z,8.00
2019-03-31T03:58:52.493Z,8.00
2019-03-31T03:59:52.478Z,8.00
2019-03-31T04:00:52.468Z,8.00
2019-03-31T04:01:52.475Z,8.00
2019-03-31T04:02:52.455Z,8.00
2019-03-31T04:03:52.444Z,8.00
2019-03-31T04:04:52.439Z,8.00
2019-03-31T04:05:52.426Z,8.00
2019-03-31T04:06:52.439Z,8.00
2019-03-31T04:07:52.413Z,8.00
2019-03-31T04:08:52.398Z,8.00
2019-03-31T04:09:52.394Z,8.00
2019-03-31T04:10:52.381Z,8.00
2019-03-31T04:11:52.373Z,8.00
2019-03-31T04:12:52.366Z,8.00
2019-03-31T04:13:52.357Z,8.00
2019-03-31T04:14:52.350Z,8.00
2019-03-31T04:15:52.335Z,8.00
2019-03-31T04:16:52.325Z,8.00
2019-03-31T04:17:52.321Z,8.00
2019-03-31T04:18:52.308Z,8.00
2019-03-31T04:19:52.298Z,8.00
2019-03-31T04:20:52.317Z,4.00
2019-03-31T04:21:52.277Z,4.00
2019-03-31T04:22:52.271Z,4.00
2019-03-31T04:23:52.268Z,8.00
2019-03-31T04:24:52.255Z,8.00
2019-03-31T04:25:52.246Z,8.00
2019-03-31T04:26:52.236Z,8.00
2019-03-31T04:27:52.224Z,8.00
2019-03-31T04:28:52.215Z,8.00
2019-03-31T04:29:52.204Z,8.00
2019-03-31T04:30:52.194Z,8.00
2019-03-31T04:31:52.213Z,8.00
2019-03-31T04:32:52.183Z,4.00
2019-03-31T04:33:52.980Z,8.00
2019-03-31T04:34:52.166Z,8.00
2019-03-31T04:35:52.156Z,8.00
2019-03-31T04:36:52.144Z,8.00
2019-03-31T04:37:52.131Z,8.00
2019-03-31T04:38:52.125Z,12.00
2019-03-31T04:39:52.121Z,12.00
2019-03-31T04:40:52.108Z,16.00
2019-03-31T04:41:52.095Z,16.00
2019-03-31T04:42:52.105Z,20.00
2019-03-31T04:43:52.083Z,24.00
2019-03-31T04:44:52.075Z,28.00
2019-03-31T04:45:52.063Z,32.00
2019-03-31T04:46:52.048Z,36.00
2019-03-31T04:47:52.040Z,36.00
2019-03-31T04:48:52.038Z,44.00
2019-03-31T04:49:52.021Z,48.00
2019-03-31T04:50:52.352Z,52.00
2019-03-31T04:51:52.004Z,60.00
2019-03-31T04:52:51.996Z,64.00
2019-03-31T04:53:51.984Z,72.00
2019-03-31T04:54:51.983Z,80.00
2019-03-31T04:55:51.964Z,84.00
2019-03-31T04:56:51.961Z,92.00
2019-03-31T04:57:51.945Z,100.00
2019-03-31T04:58:51.938Z,108.00
2019-03-31T04:59:51.927Z,120.00
2019-03-31T05:00:51.925Z,128.00
2019-03-31T05:01:51.917Z,140.00
2019-03-31T05:02:51.908Z,148.00
2019-03-31T05:04:03.975Z,160.00
2019-03-31T05:04:51.882Z,168.00
2019-03-31T05:05:51.877Z,180.00
2019-03-31T05:06:51.866Z,192.00
2019-03-31T05:07:51.863Z,204.00
2019-03-31T05:08:51.861Z,216.00
2019-03-31T05:09:51.833Z,228.00
2019-03-31T05:10:51.825Z,240.00
2019-03-31T05:11:51.815Z,256.00
2019-03-31T05:12:51.805Z,268.00
2019-03-31T05:13:51.806Z,284.00
2019-03-31T05:14:51.786Z,296.00
2019-03-31T05:15:51.806Z,312.00
2019-03-31T05:16:51.770Z,328.00
2019-03-31T05:17:51.764Z,344.00
2019-03-31T05:18:51.754Z,360.00
2019-03-31T05:19:51.768Z,376.00
2019-03-31T05:20:51.731Z,392.00
2019-03-31T05:21:51.725Z,408.00
2019-03-31T05:22:52.953Z,428.00
2019-03-31T05:23:51.784Z,444.00
2019-03-31T05:24:51.717Z,460.00
2019-03-31T05:25:51.686Z,476.00
2019-03-31T05:26:51.675Z,500.00
2019-03-31T05:27:51.666Z,520.00
2019-03-31T05:28:51.656Z,540.00
2019-03-31T05:29:51.647Z,560.00
2019-03-31T05:30:51.639Z,584.00
2019-03-31T05:31:51.628Z,604.00
2019-03-31T05:32:51.618Z,628.00
2019-03-31T05:33:51.613Z,648.00
2019-03-31T05:34:51.609Z,672.00
2019-03-31T05:35:51.590Z,692.00
2019-03-31T05:36:51.587Z,704.00
2019-03-31T05:37:51.659Z,708.00
2019-03-31T05:38:51.574Z,716.00
2019-03-31T05:39:51.552Z,728.00
2019-03-31T05:40:51.560Z,744.00
2019-03-31T05:41:51.538Z,764.00
2019-03-31T05:42:51.527Z,796.00
2019-03-31T05:44:04.854Z,836.00
2019-03-31T05:44:51.508Z,892.00
2019-03-31T05:45:52.534Z,960.00
2019-03-31T05:46:51.494Z,1024.00
2019-03-31T05:47:51.487Z,1072.00
2019-03-31T05:48:51.470Z,1112.00
2019-03-31T05:49:51.460Z,1140.00
2019-03-31T05:50:51.451Z,1172.00
2019-03-31T05:51:51.440Z,1200.00
2019-03-31T05:52:51.433Z,1224.00
2019-03-31T05:53:51.430Z,1240.00
2019-03-31T05:54:51.414Z,1260.00
2019-03-31T05:55:51.407Z,1276.00
2019-03-31T05:56:51.394Z,1288.00
2019-03-31T05:57:51.387Z,1284.00
2019-03-31T05:58:51.381Z,1276.00
2019-03-31T05:59:51.393Z,1264.00
2019-03-31T06:00:51.357Z,1244.00
2019-03-31T06:01:51.352Z,1232.00
2019-03-31T06:02:51.347Z,1216.00
2019-03-31T06:03:51.335Z,1216.00
2019-03-31T06:04:51.326Z,1216.00
2019-03-31T06:05:51.314Z,1216.00
2019-03-31T06:06:51.305Z,1216.00
2019-03-31T06:07:51.296Z,1224.00
2019-03-31T06:08:51.287Z,1216.00
2019-03-31T06:09:51.277Z,1216.00
2019-03-31T06:10:51.267Z,1216.00
2019-03-31T06:11:53.397Z,1220.00
2019-03-31T06:12:51.251Z,1228.00
2019-03-31T06:13:51.247Z,1244.00
2019-03-31T06:14:51.228Z,1256.00
2019-03-31T06:15:51.221Z,1272.00
2019-03-31T06:16:51.215Z,1288.00
2019-03-31T06:17:51.206Z,1300.00
2019-03-31T06:18:51.195Z,1308.00
2019-03-31T06:19:51.185Z,1320.00
2019-03-31T06:20:51.184Z,1332.00
2019-03-31T06:21:51.172Z,1336.00
2019-03-31T06:22:51.162Z,1348.00
2019-03-31T06:23:51.149Z,1360.00
2019-03-31T06:24:51.148Z,1376.00
2019-03-31T06:25:51.134Z,1388.00
2019-03-31T06:26:51.126Z,1400.00
2019-03-31T06:27:51.116Z,1412.00
2019-03-31T06:28:51.122Z,1420.00
2019-03-31T06:29:51.098Z,1428.00
2019-03-31T06:30:51.089Z,1444.00
2019-03-31T06:31:51.081Z,1456.00
2019-03-31T06:32:51.071Z,1468.00
2019-03-31T06:33:51.081Z,1480.00
2019-03-31T06:34:51.054Z,1496.00
2019-03-31T06:35:51.049Z,1508.00
2019-03-31T06:36:51.036Z,1524.00
2019-03-31T06:37:51.027Z,1536.00
2019-03-31T06:38:51.023Z,1548.00
2019-03-31T06:39:51.010Z,1564.00
2019-03-31T06:40:51.013Z,1580.00
2019-03-31T06:41:51.007Z,1596.00
2019-03-31T06:42:50.983Z,1612.00
2019-03-31T06:43:50.984Z,1624.00
2019-03-31T06:44:50.978Z,1636.00
2019-03-31T06:45:50.957Z,1644.00
2019-03-31T06:46:50.949Z,1660.00
2019-03-31T06:47:50.940Z,1676.00
2019-03-31T06:48:50.929Z,1692.00
2019-03-31T06:49:50.920Z,1708.00
2019-03-31T06:50:50.916Z,1728.00
2019-03-31T06:51:50.903Z,1752.00
2019-03-31T06:52:50.906Z,1776.00
2019-03-31T06:53:50.886Z,1796.00
2019-03-31T06:54:50.890Z,1816.00
2019-03-31T06:55:50.872Z,1840.00
2019-03-31T06:56:50.863Z,1860.00
2019-03-31T06:57:50.864Z,1884.00
2019-03-31T06:58:50.848Z,1908.00
2019-03-31T06:59:50.837Z,1932.00
2019-03-31T07:00:50.847Z,1956.00
2019-03-31T07:01:50.821Z,1976.00
2019-03-31T07:02:50.814Z,1996.00
2019-03-31T07:03:50.803Z,2024.00
2019-03-31T07:05:00.833Z,2060.00
2019-03-31T07:05:50.786Z,2108.00
2019-03-31T07:06:50.795Z,2164.00
2019-03-31T07:07:50.772Z,2232.00
2019-03-31T07:08:50.782Z,2308.00
2019-03-31T07:09:50.753Z,2396.00
2019-03-31T07:10:50.765Z,2504.00
2019-03-31T07:11:50.736Z,2664.00
2019-03-31T07:12:50.800Z,2836.00
2019-03-31T07:13:50.720Z,2980.00
2019-03-31T07:14:50.716Z,3072.00
2019-03-31T07:15:50.705Z,3024.00
2019-03-31T07:16:50.698Z,2924.00
2019-03-31T07:17:50.687Z,2732.00
2019-03-31T07:18:50.679Z,2564.00
2019-03-31T07:19:50.688Z,2452.00
2019-03-31T07:20:50.670Z,2404.00
2019-03-31T07:21:50.662Z,2376.00
2019-03-31T07:22:50.649Z,2328.00
2019-03-31T07:23:50.651Z,2280.00
2019-03-31T07:24:50.640Z,2252.00
2019-03-31T07:25:50.645Z,2228.00
2019-03-31T07:26:50.624Z,2248.00
2019-03-31T07:27:50.607Z,2292.00
2019-03-31T07:28:50.601Z,2328.00
2019-03-31T07:29:50.592Z,2376.00
2019-03-31T07:30:50.618Z,2428.00
2019-03-31T07:31:50.581Z,2508.00
2019-03-31T07:32:50.578Z,2560.00
2019-03-31T07:33:50.563Z,2616.00
2019-03-31T07:34:50.559Z,2660.00
2019-03-31T07:35:50.548Z,2688.00
2019-03-31T07:36:50.549Z,2696.00
2019-03-31T07:37:50.531Z,2704.00
2019-03-31T07:38:50.536Z,2724.00
2019-03-31T07:39:50.624Z,2748.00
2019-03-31T07:40:50.513Z,2768.00
2019-03-31T07:41:50.505Z,2760.00
2019-03-31T07:42:51.297Z,2756.00
2019-03-31T07:43:50.492Z,2740.00
2019-03-31T07:44:50.485Z,2768.00
2019-03-31T07:45:50.479Z,2852.00
2019-03-31T07:46:50.474Z,2964.00
2019-03-31T07:47:50.463Z,3032.00
2019-03-31T07:48:50.455Z,3068.00
2019-03-31T07:49:50.454Z,3052.00
2019-03-31T07:50:50.443Z,2980.00
2019-03-31T07:51:50.435Z,2936.00
2019-03-31T07:52:50.429Z,2884.00
2019-03-31T07:53:50.421Z,2832.00
2019-03-31T07:54:50.415Z,2816.00
2019-03-31T07:55:50.415Z,2812.00
2019-03-31T07:56:50.401Z,2836.00
2019-03-31T07:57:50.392Z,2828.00
2019-03-31T07:58:50.397Z,2864.00
2019-03-31T07:59:50.405Z,2896.00
2019-03-31T08:00:50.393Z,2904.00
2019-03-31T08:01:50.371Z,2960.00
2019-03-31T08:02:50.360Z,2948.00
2019-03-31T08:03:50.358Z,2956.00
2019-03-31T08:04:50.349Z,2972.00
2019-03-31T08:05:50.343Z,2972.00
2019-03-31T08:06:50.334Z,3012.00
2019-03-31T08:07:50.330Z,3112.00
2019-03-31T08:08:53.243Z,3236.00
2019-03-31T08:09:50.317Z,3356.00
2019-03-31T08:10:50.314Z,3372.00
2019-03-31T08:11:50.306Z,3312.00
2019-03-31T08:12:50.336Z,3264.00
2019-03-31T08:13:50.292Z,3228.00
2019-03-31T08:14:50.288Z,3240.00
2019-03-31T08:15:50.282Z,3260.00
2019-03-31T08:16:50.275Z,3304.00
2019-03-31T08:17:50.269Z,3328.00
2019-03-31T08:18:50.271Z,3340.00
2019-03-31T08:19:50.336Z,3348.00
2019-03-31T08:20:50.265Z,3396.00
2019-03-31T08:21:50.244Z,3448.00
2019-03-31T08:22:50.239Z,3488.00
2019-03-31T08:23:50.245Z,3516.00
2019-03-31T08:24:50.231Z,3544.00
2019-03-31T08:25:50.221Z,3572.00
2019-03-31T08:26:50.217Z,3568.00
2019-03-31T08:27:50.213Z,3552.00
2019-03-31T08:28:50.207Z,3548.00
2019-03-31T08:30:00.125Z,3560.00
2019-03-31T08:30:50.192Z,3532.00
2019-03-31T08:31:50.187Z,3500.00
2019-03-31T08:32:50.186Z,3464.00
2019-03-31T08:33:50.189Z,3452.00
2019-03-31T08:34:50.182Z,3464.00
2019-03-31T08:35:50.172Z,3488.00
2019-03-31T08:36:50.164Z,3520.00
2019-03-31T08:37:50.165Z,3572.00
2019-03-31T08:38:50.155Z,3656.00
2019-03-31T08:39:50.155Z,3744.00
2019-03-31T08:40:50.143Z,3808.00
2019-03-31T08:41:50.136Z,3824.00
2019-03-31T08:42:50.135Z,3752.00
2019-03-31T08:43:50.131Z,3636.00
2019-03-31T08:44:50.121Z,3516.00
2019-03-31T08:45:50.116Z,3420.00
2019-03-31T08:46:50.112Z,3360.00
2019-03-31T08:47:50.104Z,3336.00
2019-03-31T08:48:50.102Z,3312.00
2019-03-31T08:49:50.095Z,3284.00
2019-03-31T08:50:50.093Z,3248.00
2019-03-31T08:51:50.083Z,3208.00
2019-03-31T08:52:50.076Z,3176.00
2019-03-31T08:53:50.071Z,3144.00
2019-03-31T08:54:50.066Z,3140.00
2019-03-31T08:55:50.061Z,3184.00
2019-03-31T08:56:50.053Z,3212.00
2019-03-31T08:57:50.049Z,3244.00
2019-03-31T08:58:50.052Z,3284.00
2019-03-31T08:59:50.036Z,3340.00
2019-03-31T09:00:50.035Z,3396.00
2019-03-31T09:01:50.027Z,3408.00
2019-03-31T09:02:50.019Z,3492.00
2019-03-31T09:03:50.020Z,3496.00
2019-03-31T09:04:50.027Z,3500.00
2019-03-31T09:06:01.118Z,3504.00
2019-03-31T09:06:50.009Z,3544.00
2019-03-31T09:07:49.993Z,3612.00
2019-03-31T09:08:49.989Z,3676.00
2019-03-31T09:09:49.981Z,3736.00
2019-03-31T09:10:49.977Z,3780.00
2019-03-31T09:11:49.974Z,3812.00
2019-03-31T09:12:49.972Z,3856.00
2019-03-31T09:13:49.964Z,3884.00
2019-03-31T09:14:49.972Z,3908.00
2019-03-31T09:15:49.954Z,3948.00
2019-03-31T09:16:49.946Z,3980.00
2019-03-31T09:17:49.952Z,4032.00
2019-03-31T09:18:49.936Z,4096.00
2019-03-31T09:19:49.932Z,4168.00
2019-03-31T09:20:49.929Z,4220.00
2019-03-31T09:21:49.930Z,4232.00
2019-03-31T09:22:49.922Z,4224.00
2019-03-31T09:23:49.909Z,4252.00
2019-03-31T09:24:49.914Z,4312.00
2019-03-31T09:25:49.901Z,4384.00
2019-03-31T09:26:49.901Z,4516.00
2019-03-31T09:27:49.891Z,4648.00
2019-03-31T09:28:49.889Z,4780.00
2019-03-31T09:29:49.882Z,4836.00
2019-03-31T09:30:49.877Z,4912.00
2019-03-31T09:31:49.875Z,4936.00
2019-03-31T09:32:49.865Z,4880.00
2019-03-31T09:33:49.864Z,4856.00
2019-03-31T09:34:49.934Z,4708.00
2019-03-31T09:35:49.853Z,4540.00
2019-03-31T09:36:49.851Z,4376.00
2019-03-31T09:37:49.849Z,4336.00
2019-03-31T09:38:49.839Z,4384.00
2019-03-31T09:39:49.837Z,4484.00
2019-03-31T09:40:49.835Z,4568.00
2019-03-31T09:41:49.832Z,4744.00
2019-03-31T09:42:49.822Z,4832.00
2019-03-31T09:43:49.832Z,4848.00
2019-03-31T09:44:49.813Z,4980.00
2019-03-31T09:45:49.802Z,5052.00
2019-03-31T09:46:49.805Z,4976.00
2019-03-31T09:47:49.793Z,4844.00
2019-03-31T09:48:49.790Z,4788.00
2019-03-31T09:49:49.787Z,4620.00
2019-03-31T09:50:49.786Z,4308.00
2019-03-31T09:51:49.782Z,4016.00
2019-03-31T09:52:49.802Z,3712.00
2019-03-31T09:53:49.767Z,3460.00
2019-03-31T09:54:49.782Z,3284.00
2019-03-31T09:55:49.759Z,3204.00
2019-03-31T09:56:49.752Z,3188.00
2019-03-31T09:57:49.750Z,3212.00
2019-03-31T09:58:49.743Z,3256.00
2019-03-31T09:59:49.740Z,3320.00
2019-03-31T10:00:49.741Z,3424.00
2019-03-31T10:01:49.726Z,3584.00
2019-03-31T10:02:49.725Z,3788.00
2019-03-31T10:03:49.765Z,3996.00
2019-03-31T10:04:49.717Z,4212.00
2019-03-31T10:05:49.716Z,4372.00
2019-03-31T10:06:49.707Z,4500.00
2019-03-31T10:07:49.700Z,4572.00
2019-03-31T10:08:49.727Z,4700.00
2019-03-31T10:09:49.710Z,4796.00
2019-03-31T10:10:49.762Z,4996.00
2019-03-31T10:11:49.685Z,4956.00
2019-03-31T10:12:49.680Z,5052.00
2019-03-31T10:13:49.759Z,5300.00
2019-03-31T10:14:49.663Z,5368.00
2019-03-31T10:15:49.662Z,5316.00
2019-03-31T10:16:49.657Z,5204.00
2019-03-31T10:17:49.654Z,4996.00
2019-03-31T10:18:49.644Z,4804.00
2019-03-31T10:19:49.650Z,4728.00
2019-03-31T10:20:49.635Z,4720.00
2019-03-31T10:21:49.633Z,4712.00
2019-03-31T10:22:49.628Z,4708.00
2019-03-31T10:23:49.622Z,4712.00
2019-03-31T10:24:49.618Z,4852.00
2019-03-31T10:25:49.611Z,5028.00
2019-03-31T10:26:49.608Z,5324.00
2019-03-31T10:27:49.602Z,5568.00
2019-03-31T10:28:49.601Z,5784.00
2019-03-31T10:29:49.594Z,6012.00
2019-03-31T10:30:49.589Z,5920.00
2019-03-31T10:31:49.582Z,6172.00
2019-03-31T10:32:49.578Z,6132.00
2019-03-31T10:33:49.575Z,5712.00
2019-03-31T10:34:49.572Z,5436.00
2019-03-31T10:35:49.568Z,5568.00
2019-03-31T10:36:49.619Z,5968.00
2019-03-31T10:37:49.566Z,6028.00
2019-03-31T10:38:49.552Z,6004.00
2019-03-31T10:39:49.550Z,5796.00
2019-03-31T10:40:49.543Z,5752.00
2019-03-31T10:41:49.538Z,5804.00
2019-03-31T10:42:49.541Z,5608.00
2019-03-31T10:43:49.549Z,5944.00
2019-03-31T10:44:49.526Z,5992.00
2019-03-31T10:45:49.534Z,5904.00
2019-03-31T10:46:49.538Z,5636.00
2019-03-31T10:47:49.517Z,5416.00
2019-03-31T10:48:49.510Z,5508.00
2019-03-31T10:49:49.507Z,5528.00
2019-03-31T10:50:49.507Z,5516.00
2019-03-31T10:51:49.498Z,5500.00
2019-03-31T10:52:49.513Z,5628.00
2019-03-31T10:53:49.497Z,5896.00
2019-03-31T10:54:49.489Z,6248.00
2019-03-31T10:55:49.484Z,6260.00
2019-03-31T10:56:49.492Z,5776.00
2019-03-31T10:57:49.480Z,5272.00
2019-03-31T10:58:49.473Z,4720.00
2019-03-31T10:59:49.468Z,4340.00
2019-03-31T11:00:49.472Z,4132.00
2019-03-31T11:01:49.478Z,4012.00
2019-03-31T11:02:49.456Z,3992.00
2019-03-31T11:03:49.453Z,4048.00
2019-03-31T11:04:49.453Z,4132.00
2019-03-31T11:05:49.448Z,4176.00
2019-03-31T11:06:58.946Z,4132.00
2019-03-31T11:07:49.444Z,4052.00
2019-03-31T11:08:49.433Z,3972.00
2019-03-31T11:09:49.425Z,3848.00
2019-03-31T11:10:49.425Z,3720.00
2019-03-31T11:11:49.421Z,3612.00
2019-03-31T11:12:50.901Z,3540.00
2019-03-31T11:13:49.409Z,3508.00
2019-03-31T11:14:49.407Z,3484.00
2019-03-31T11:15:49.401Z,3544.00
2019-03-31T11:16:49.398Z,3632.00
2019-03-31T11:17:49.395Z,3760.00
2019-03-31T11:18:49.408Z,3884.00
2019-03-31T11:19:49.386Z,3912.00
2019-03-31T11:20:49.380Z,3888.00
2019-03-31T11:21:49.376Z,3816.00
2019-03-31T11:22:49.402Z,3708.00
2019-03-31T11:23:49.367Z,3596.00
2019-03-31T11:24:49.361Z,3496.00
2019-03-31T11:25:49.356Z,3408.00
2019-03-31T11:26:49.353Z,3352.00
2019-03-31T11:27:49.350Z,3304.00
2019-03-31T11:28:49.349Z,3264.00
2019-03-31T11:29:49.344Z,3184.00
2019-03-31T11:30:49.344Z,3036.00
2019-03-31T11:31:49.332Z,2864.00
2019-03-31T11:32:49.330Z,2716.00
2019-03-31T11:33:49.319Z,2580.00
2019-03-31T11:34:49.313Z,2468.00
2019-03-31T11:35:49.316Z,2352.00
2019-03-31T11:36:49.306Z,2252.00
2019-03-31T11:37:49.302Z,2172.00
2019-03-31T11:38:49.298Z,2092.00
2019-03-31T11:39:49.291Z,2036.00
2019-03-31T11:40:49.289Z,1992.00
2019-03-31T11:41:49.287Z,1976.00
2019-03-31T11:42:49.280Z,1988.00
2019-03-31T11:43:49.276Z,2012.00
2019-03-31T11:44:49.267Z,2036.00
2019-03-31T11:45:49.260Z,2020.00
2019-03-31T11:46:49.259Z,1992.00
2019-03-31T11:47:49.255Z,1972.00
2019-03-31T11:48:49.253Z,1948.00
2019-03-31T11:49:49.243Z,1920.00
2019-03-31T11:50:49.238Z,1900.00
2019-03-31T11:51:49.235Z,1892.00
2019-03-31T11:52:49.230Z,1920.00
2019-03-31T11:53:49.224Z,1984.00
2019-03-31T11:54:51.175Z,2092.00
2019-03-31T11:55:49.214Z,2244.00
2019-03-31T11:56:49.210Z,2444.00
2019-03-31T11:57:49.206Z,2672.00
2019-03-31T11:58:49.210Z,2904.00
2019-03-31T11:59:49.778Z,3124.00
2019-03-31T12:00:49.188Z,3340.00
2019-03-31T12:01:49.187Z,3552.00
2019-03-31T12:02:49.183Z,3764.00
2019-03-31T12:03:49.183Z,3976.00
2019-03-31T12:04:49.166Z,4112.00
2019-03-31T12:05:49.187Z,4220.00
2019-03-31T12:06:49.153Z,4324.00
2019-03-31T12:07:49.154Z,4444.00
2019-03-31T12:08:49.143Z,4560.00
2019-03-31T12:09:49.135Z,4648.00
2019-03-31T12:10:49.131Z,4672.00
2019-03-31T12:11:49.129Z,4656.00
2019-03-31T12:12:49.119Z,4604.00
2019-03-31T12:13:49.119Z,4516.00
2019-03-31T12:14:59.869Z,4452.00
2019-03-31T12:15:49.112Z,4408.00
2019-03-31T12:16:49.100Z,4352.00
2019-03-31T12:17:49.094Z,4296.00
2019-03-31T12:18:49.094Z,4184.00
2019-03-31T12:19:49.087Z,4036.00
2019-03-31T12:20:49.107Z,3956.00
2019-03-31T12:21:49.083Z,3836.00
2019-03-31T12:22:49.068Z,3900.00
2019-03-31T12:23:49.064Z,3848.00
2019-03-31T12:24:49.059Z,3984.00
2019-03-31T12:25:49.051Z,4168.00
2019-03-31T12:26:49.061Z,4288.00
2019-03-31T12:27:49.046Z,4172.00
2019-03-31T12:28:49.036Z,4368.00
2019-03-31T12:29:49.030Z,4468.00
2019-03-31T12:30:49.025Z,4300.00
2019-03-31T12:31:49.028Z,4236.00
2019-03-31T12:32:49.038Z,4048.00
2019-03-31T12:33:49.007Z,3892.00